Time;durP1;ratioP1;P1;durP2;ratioP2;P2;SDS_P1;SDS_P2;PMS_P1;PMS_P2;Temp;Humidity;BMP_temperature;BMP_pressure;BME280_temperature;BME280_humidity;BME280_pressure;Samples;Min_cycle;Max_cycle;Signal;HPM_P1;HPM_P2
2023/04/01 00:00:59;;;;;;;4.25;1.60;;;9.70;67.30;;;;;;5073798;28;20189;-70
2023/04/01 00:03:27;;;;;;;2.03;0.80;;;9.70;68.20;;;;;;5073651;28;20190;-70
2023/04/01 00:05:55;;;;;;;3.80;2.22;;;9.70;67.30;;;;;;5073787;28;20604;-69
2023/04/01 00:08:26;;;;;;;3.80;1.90;;;9.70;66.80;;;;;;5073098;28;20218;-70
2023/04/01 00:10:53;;;;;;;3.15;1.85;;;9.60;68.00;;;;;;5053918;28;20186;-69
2023/04/01 00:13:23;;;;;;;3.47;1.30;;;9.60;68.40;;;;;;5064831;28;20186;-69
2023/04/01 00:15:51;;;;;;;3.15;1.63;;;9.50;68.10;;;;;;5073490;28;20197;-70
2023/04/01 00:18:18;;;;;;;4.57;1.20;;;9.40;69.00;;;;;;5073112;28;20190;-69
2023/04/01 00:20:46;;;;;;;2.22;1.13;;;9.40;69.90;;;;;;5073237;28;20225;-69
2023/04/01 00:23:13;;;;;;;4.43;1.55;;;9.30;70.00;;;;;;5073231;28;20244;-70
2023/04/01 00:25:43;;;;;;;2.35;0.98;;;9.30;70.30;;;;;;5073553;28;20630;-70
2023/04/01 00:28:12;;;;;;;2.88;0.88;;;9.30;70.10;;;;;;5073207;28;20193;-69
2023/04/01 00:30:40;;;;;;;2.28;1.20;;;9.20;70.10;;;;;;5073784;28;20222;-69
2023/04/01 00:33:09;;;;;;;1.65;0.70;;;9.20;70.30;;;;;;5073039;28;20272;-69
2023/04/01 00:35:41;;;;;;;4.35;0.93;;;9.20;69.90;;;;;;5073634;28;20274;-69
2023/04/01 00:38:11;;;;;;;4.18;1.15;;;9.20;69.80;;;;;;5073128;28;20196;-69
2023/04/01 00:40:44;;;;;;;2.78;0.77;;;9.20;69.50;;;;;;5073188;28;20192;-69
2023/04/01 00:43:13;;;;;;;2.63;0.93;;;9.20;69.00;;;;;;5072843;28;20221;-69
2023/04/01 00:45:45;;;;;;;2.85;1.00;;;9.10;68.40;;;;;;5073366;28;20615;-69
2023/04/01 00:48:23;;;;;;;2.85;0.90;;;9.20;68.60;;;;;;5072784;28;20185;-70
2023/04/01 00:50:54;;;;;;;2.40;0.95;;;9.20;68.20;;;;;;5073289;28;20219;-69
2023/04/01 00:53:24;;;;;;;1.80;0.70;;;9.20;67.70;;;;;;5072941;28;20268;-69
2023/04/01 00:55:59;;;;;;;2.00;0.77;;;9.20;66.60;;;;;;5072844;28;20228;-70
2023/04/01 00:58:28;;;;;;;4.95;1.15;;;9.20;66.70;;;;;;5073096;28;20185;-69
2023/04/01 01:00:57;;;;;;;2.05;0.80;;;9.20;66.10;;;;;;5073135;28;20280;-69
2023/04/01 01:03:25;;;;;;;3.13;0.80;;;9.30;66.70;;;;;;5072600;28;20194;-69
2023/04/01 01:06:10;;;;;;;1.77;0.75;;;9.40;65.20;;;;;;5072991;28;20285;-69
2023/04/01 01:09:07;;;;;;;5.75;0.95;;;9.40;64.30;;;;;;5072172;28;20222;-69
2023/04/01 01:11:41;;;;;;;2.80;0.88;;;9.50;64.10;;;;;;5072902;28;20193;-69
2023/04/01 01:14:19;;;;;;;3.83;0.88;;;9.60;64.20;;;;;;5072238;28;20205;-70
2023/04/01 01:16:56;;;;;;;2.67;0.95;;;9.60;63.80;;;;;;5072737;28;20200;-69
2023/04/01 01:19:49;;;;;;;2.95;0.80;;;9.60;64.10;;;;;;5072678;28;20315;-69
2023/04/01 01:22:30;;;;;;;1.60;0.75;;;9.70;64.50;;;;;;5071866;28;20280;-70
2023/04/01 01:25:17;;;;;;;1.70;0.82;;;9.70;64.30;;;;;;5072710;28;20280;-70
2023/04/01 01:27:55;;;;;;;2.40;0.77;;;9.70;64.20;;;;;;5072248;28;20551;-69
2023/04/01 01:30:37;;;;;;;1.60;0.70;;;9.80;64.00;;;;;;5072429;28;20709;-71
2023/04/01 01:33:46;;;;;;;2.28;0.80;;;9.80;63.80;;;;;;5067860;28;20243;-70
2023/04/01 01:36:16;;;;;;;2.70;0.80;;;9.80;64.10;;;;;;5056670;28;20217;-69
2023/04/01 01:38:45;;;;;;;3.50;1.13;;;9.80;63.80;;;;;;5072675;28;20239;-69
2023/04/01 01:41:14;;;;;;;1.60;0.70;;;9.80;64.20;;;;;;5071947;28;20178;-75
2023/04/01 01:43:44;;;;;;;1.50;0.60;;;9.80;64.10;;;;;;5072165;28;20239;-69
2023/04/01 01:46:15;;;;;;;3.85;0.90;;;9.80;63.60;;;;;;5072025;28;20178;-69
2023/04/01 01:48:44;;;;;;;1.98;1.35;;;9.80;63.20;;;;;;5072430;28;20189;-71
2023/04/01 01:51:12;;;;;;;1.80;0.70;;;9.80;63.70;;;;;;5072027;28;20654;-69
2023/04/01 01:53:40;;;;;;;1.60;0.60;;;9.80;63.50;;;;;;5072231;28;20718;-69
2023/04/01 01:56:08;;;;;;;1.90;1.00;;;9.70;63.30;;;;;;5071881;28;20217;-70
2023/04/01 01:58:40;;;;;;;2.22;0.73;;;9.70;64.10;;;;;;5072169;28;20243;-69
2023/04/01 02:01:13;;;;;;;1.90;0.85;;;9.70;64.10;;;;;;5071931;28;20247;-70
2023/04/01 02:03:42;;;;;;;3.25;0.82;;;9.70;64.10;;;;;;5072058;28;20193;-69
2023/04/01 02:06:15;;;;;;;1.88;0.70;;;9.70;64.20;;;;;;5071872;28;20189;-70
2023/04/01 02:08:47;;;;;;;2.55;1.05;;;9.60;64.90;;;;;;5072048;28;20358;-70
2023/04/01 02:11:18;;;;;;;2.40;0.75;;;9.60;64.70;;;;;;5071837;28;20625;-69
2023/04/01 02:13:53;;;;;;;4.50;0.70;;;9.60;64.60;;;;;;5071779;28;20197;-69
2023/04/01 02:16:26;;;;;;;2.33;0.70;;;9.60;64.50;;;;;;5072296;28;20760;-69
2023/04/01 02:18:56;;;;;;;2.70;0.98;;;9.60;64.70;;;;;;5071984;28;20515;-69
2023/04/01 02:21:28;;;;;;;1.60;0.70;;;9.60;65.50;;;;;;5072068;28;20704;-70
2023/04/01 02:23:59;;;;;;;2.22;0.75;;;9.60;65.90;;;;;;5071857;28;20189;-70
2023/04/01 02:26:27;;;;;;;2.25;0.80;;;9.60;66.10;;;;;;5072350;28;20566;-71
2023/04/01 02:28:56;;;;;;;2.60;0.70;;;9.60;67.20;;;;;;5071754;28;20642;-69
2023/04/01 02:31:25;;;;;;;3.58;0.60;;;9.60;68.00;;;;;;5071165;28;20551;-70
2023/04/01 02:33:56;;;;;;;3.47;1.10;;;9.50;68.70;;;;;;5072164;28;20193;-69
2023/04/01 02:36:25;;;;;;;2.13;0.90;;;9.60;69.40;;;;;;5071815;28;20298;-69
2023/04/01 02:39:01;;;;;;;2.00;1.17;;;9.50;70.10;;;;;;5071987;28;20186;-70
2023/04/01 02:41:32;;;;;;;2.20;1.00;;;9.50;71.70;;;;;;5071300;28;20236;-70
2023/04/01 02:43:59;;;;;;;1.70;0.80;;;9.40;72.10;;;;;;5075127;28;20193;-69
2023/04/01 02:46:29;;;;;;;2.25;0.60;;;9.40;72.60;;;;;;5075078;28;20182;-70
2023/04/01 02:48:57;;;;;;;1.98;0.70;;;9.40;73.70;;;;;;5075641;28;20201;-69
2023/04/01 02:51:24;;;;;;;1.80;0.70;;;9.30;73.50;;;;;;5075193;28;20273;-69
2023/04/01 02:53:51;;;;;;;2.20;0.60;;;9.30;74.10;;;;;;5075274;28;20282;-70
2023/04/01 02:56:21;;;;;;;1.70;0.60;;;9.20;74.10;;;;;;5074681;28;21041;-70
2023/04/01 02:58:51;;;;;;;1.95;0.70;;;9.20;74.40;;;;;;5075396;28;20194;-69
2023/04/01 03:01:19;;;;;;;2.65;0.70;;;9.10;74.80;;;;;;5074931;28;20594;-69
2023/04/01 03:03:46;;;;;;;2.08;0.70;;;9.10;74.70;;;;;;5074950;28;20192;-69
2023/04/01 03:06:15;;;;;;;1.58;0.70;;;9.00;74.80;;;;;;5074912;28;20189;-69
2023/04/01 03:08:43;;;;;;;1.88;0.70;;;9.00;74.00;;;;;;5074646;28;20263;-69
2023/04/01 03:11:13;;;;;;;1.60;0.80;;;8.90;74.00;;;;;;5074684;28;20251;-70
2023/04/01 03:13:42;;;;;;;1.50;0.70;;;8.80;74.80;;;;;;5074419;28;20197;-69
2023/04/01 03:16:10;;;;;;;2.85;0.77;;;8.80;75.10;;;;;;5074737;28;20276;-69
2023/04/01 03:18:38;;;;;;;1.70;0.70;;;8.70;75.50;;;;;;5074841;28;20690;-69
2023/04/01 03:21:19;;;;;;;2.90;0.70;;;8.70;76.30;;;;;;5074636;28;20186;-69
2023/04/01 03:23:47;;;;;;;2.35;0.80;;;8.70;76.20;;;;;;5074874;28;20656;-69
2023/04/01 03:26:27;;;;;;;3.85;0.70;;;8.60;76.20;;;;;;5074236;28;20644;-69
2023/04/01 03:28:57;;;;;;;2.03;0.70;;;8.60;76.80;;;;;;5074787;28;20699;-69
2023/04/01 03:31:26;;;;;;;2.47;0.80;;;8.60;76.90;;;;;;5074555;28;20345;-69
2023/04/01 03:33:53;;;;;;;1.70;0.80;;;8.60;77.10;;;;;;5074959;28;20247;-70
2023/04/01 03:36:21;;;;;;;2.42;0.80;;;8.60;77.10;;;;;;5073922;28;20255;-69
2023/04/01 03:38:49;;;;;;;2.30;1.00;;;8.60;77.10;;;;;;5074563;28;20190;-69
2023/04/01 03:41:18;;;;;;;2.50;0.85;;;8.70;77.20;;;;;;5073726;28;20194;-71
2023/04/01 03:43:47;;;;;;;2.58;0.80;;;8.70;77.20;;;;;;5074138;28;20190;-70
2023/04/01 03:46:20;;;;;;;1.60;0.73;;;8.70;77.20;;;;;;5074588;28;20213;-69
2023/04/01 03:48:48;;;;;;;5.90;0.80;;;8.70;77.60;;;;;;5074046;28;20662;-69
2023/04/01 03:51:17;;;;;;;2.17;0.70;;;8.70;77.30;;;;;;5073988;28;20190;-69
2023/04/01 03:53:45;;;;;;;1.90;0.60;;;8.80;76.30;;;;;;5073465;28;20264;-69
2023/04/01 03:56:12;;;;;;;1.67;0.75;;;8.80;76.10;;;;;;5073851;28;20257;-70
2023/04/01 03:58:41;;;;;;;2.75;0.70;;;8.80;76.00;;;;;;5073760;28;20553;-70
2023/04/01 04:01:16;;;;;;;1.95;0.80;;;8.80;75.40;;;;;;5073351;28;20181;-70
2023/04/01 04:03:45;;;;;;;1.73;0.70;;;8.80;75.80;;;;;;5073925;28;20185;-69
2023/04/01 04:06:16;;;;;;;3.08;1.45;;;8.80;75.60;;;;;;5073677;28;20299;-70
2023/04/01 04:08:57;;;;;;;1.85;0.80;;;8.70;74.90;;;;;;5074016;28;20373;-69
2023/04/01 04:11:25;;;;;;;1.77;0.70;;;8.70;74.50;;;;;;5073565;28;20189;-70
2023/04/01 04:13:53;;;;;;;2.22;0.70;;;8.80;74.30;;;;;;5073456;28;20190;-70
2023/04/01 04:16:22;;;;;;;4.10;0.73;;;8.80;73.40;;;;;;5074053;28;20640;-69
2023/04/01 04:18:51;;;;;;;2.25;0.70;;;8.70;73.80;;;;;;5073533;28;20564;-69
2023/04/01 04:21:18;;;;;;;2.45;0.90;;;8.70;73.40;;;;;;5072719;28;20190;-70
2023/04/01 04:23:46;;;;;;;1.90;1.00;;;8.80;72.90;;;;;;5073201;28;20194;-69
2023/04/01 04:26:15;;;;;;;2.45;0.85;;;8.80;72.60;;;;;;5073118;28;20185;-69
2023/04/01 04:28:43;;;;;;;1.75;0.60;;;8.70;72.60;;;;;;5073465;28;20190;-69
2023/04/01 04:31:18;;;;;;;1.83;0.60;;;8.70;72.40;;;;;;5073270;28;20186;-69
2023/04/01 04:33:46;;;;;;;1.60;0.73;;;8.70;72.10;;;;;;5073336;28;20221;-70
2023/04/01 04:36:15;;;;;;;4.30;0.70;;;8.70;72.00;;;;;;5072914;28;20229;-69
2023/04/01 04:38:42;;;;;;;2.08;0.60;;;8.70;71.40;;;;;;5073396;28;20196;-69
2023/04/01 04:41:12;;;;;;;1.80;0.60;;;8.70;71.50;;;;;;5072701;28;20186;-70
2023/04/01 04:43:51;;;;;;;1.58;0.70;;;8.70;71.30;;;;;;5073574;28;20194;-69
2023/04/01 04:46:19;;;;;;;3.45;0.80;;;8.60;71.60;;;;;;5073043;28;20182;-69
2023/04/01 04:48:46;;;;;;;2.00;0.70;;;8.60;72.00;;;;;;5073321;28;20272;-70
2023/04/01 04:51:16;;;;;;;1.80;0.60;;;8.60;71.20;;;;;;5072289;28;20182;-70
2023/04/01 04:53:49;;;;;;;2.78;0.80;;;8.70;71.30;;;;;;5072984;28;20189;-70
2023/04/01 04:56:19;;;;;;;2.90;1.00;;;8.60;71.10;;;;;;5072481;28;20209;-70
2023/04/01 04:58:47;;;;;;;2.00;0.75;;;8.60;71.20;;;;;;5072783;28;20570;-69
2023/04/01 05:01:16;;;;;;;1.90;0.70;;;8.60;71.20;;;;;;5072322;28;20186;-70
2023/04/01 05:03:44;;;;;;;2.10;0.75;;;8.50;71.60;;;;;;5073055;28;20194;-69
2023/04/01 05:06:19;;;;;;;2.17;1.45;;;8.50;71.00;;;;;;5072430;28;20181;-69
2023/04/01 05:09:11;;;;;;;2.47;0.77;;;8.50;71.50;;;;;;5072671;28;20597;-69
2023/04/01 05:11:40;;;;;;;1.65;0.73;;;8.50;71.90;;;;;;5072020;28;20269;-70
2023/04/01 05:14:14;;;;;;;1.80;0.60;;;8.50;71.50;;;;;;5072644;28;20221;-69
2023/04/01 05:16:41;;;;;;;2.20;0.80;;;8.50;71.70;;;;;;5072115;28;20258;-69
2023/04/01 05:19:08;;;;;;;1.80;0.80;;;8.50;71.80;;;;;;5072718;28;20628;-70
2023/04/01 05:21:37;;;;;;;2.08;0.90;;;8.50;71.70;;;;;;5072186;28;20198;-70
2023/04/01 05:24:11;;;;;;;3.92;0.95;;;8.60;70.90;;;;;;5072649;28;20552;-69
2023/04/01 05:26:41;;;;;;;2.35;0.85;;;8.60;70.90;;;;;;5071463;28;20190;-70
2023/04/01 05:29:08;;;;;;;2.13;1.00;;;8.60;71.10;;;;;;5071789;28;20209;-69
2023/04/01 05:31:37;;;;;;;2.05;1.00;;;8.70;71.00;;;;;;5071990;28;20190;-70
2023/04/01 05:34:04;;;;;;;3.75;0.80;;;8.70;70.90;;;;;;5071873;28;20270;-70
2023/04/01 05:36:32;;;;;;;1.70;0.70;;;8.80;70.80;;;;;;5071899;28;20218;-71
2023/04/01 05:39:00;;;;;;;2.97;1.00;;;8.80;70.00;;;;;;5072168;28;20242;-69
2023/04/01 05:41:28;;;;;;;3.72;0.93;;;8.90;70.20;;;;;;5072172;28;20551;-76
2023/04/01 05:43:55;;;;;;;3.33;1.33;;;9.00;70.20;;;;;;5072216;28;20191;-70
2023/04/01 05:46:23;;;;;;;2.65;0.90;;;9.00;69.30;;;;;;5071915;28;20189;-69
2023/04/01 05:48:50;;;;;;;2.40;0.70;;;9.00;68.90;;;;;;5072006;28;20249;-70
2023/04/01 05:51:17;;;;;;;2.25;0.85;;;9.10;69.00;;;;;;5072081;28;20216;-69
2023/04/01 05:53:50;;;;;;;2.67;0.70;;;9.20;68.20;;;;;;5071808;28;20195;-70
2023/04/01 05:56:24;;;;;;;4.55;0.80;;;9.20;67.70;;;;;;5072113;28;20193;-69
2023/04/01 05:58:55;;;;;;;3.30;0.80;;;9.30;67.20;;;;;;5072241;28;20235;-70
2023/04/01 06:01:24;;;;;;;2.78;0.75;;;9.40;66.80;;;;;;5072248;28;20189;-74
2023/04/01 06:03:51;;;;;;;3.25;0.90;;;9.40;67.00;;;;;;5072459;28;20280;-69
2023/04/01 06:06:28;;;;;;;6.95;0.90;;;9.40;66.60;;;;;;5072259;28;20193;-70
2023/04/01 06:09:00;;;;;;;3.55;0.90;;;9.50;66.40;;;;;;5072043;28;20266;-70
2023/04/01 06:11:35;;;;;;;2.20;0.85;;;9.60;65.40;;;;;;5071835;28;20186;-69
2023/04/01 06:14:16;;;;;;;2.00;0.80;;;9.60;65.10;;;;;;5072218;28;20280;-69
2023/04/01 06:17:00;;;;;;;2.05;0.73;;;9.60;65.10;;;;;;5071777;28;20209;-69
2023/04/01 06:19:39;;;;;;;1.60;0.65;;;9.70;64.70;;;;;;5075902;28;20189;-70
2023/04/01 06:22:38;;;;;;;4.28;1.00;;;9.70;64.30;;;;;;5075029;28;20186;-70
2023/04/01 06:25:53;;;;;;;1.80;0.93;;;9.80;63.70;;;;;;5075744;28;20189;-69
2023/04/01 06:28:52;;;;;;;4.05;0.90;;;9.90;62.90;;;;;;5055856;28;20252;-69
2023/04/01 06:31:41;;;;;;;3.65;0.93;;;10.00;61.10;;;;;;5061321;28;20185;-69
2023/04/01 06:34:30;;;;;;;2.35;0.80;;;10.10;59.90;;;;;;5075840;28;20221;-69
2023/04/01 06:37:17;;;;;;;1.70;0.88;;;10.20;59.70;;;;;;5075164;28;20259;-71
2023/04/01 06:39:56;;;;;;;2.05;0.90;;;10.20;59.50;;;;;;5075608;28;20193;-69
2023/04/01 06:42:40;;;;;;;1.50;0.60;;;10.30;59.20;;;;;;5074917;28;20272;-69
2023/04/01 06:45:21;;;;;;;4.22;1.38;;;10.40;58.50;;;;;;5075733;28;20193;-70
2023/04/01 06:48:03;;;;;;;3.55;1.45;;;10.60;58.30;;;;;;5075149;28;20243;-70
2023/04/01 06:50:41;;;;;;;1.90;1.00;;;10.60;57.30;;;;;;5075403;28;20255;-71
2023/04/01 06:53:16;;;;;;;1.63;0.73;;;10.60;57.80;;;;;;5055696;28;20210;-70
2023/04/01 06:55:50;;;;;;;2.00;0.73;;;10.70;57.80;;;;;;5056423;28;20228;-69
2023/04/01 06:58:23;;;;;;;2.00;0.70;;;10.70;57.60;;;;;;5075500;28;20197;-69
2023/04/01 07:00:55;;;;;;;3.03;0.80;;;10.80;57.90;;;;;;5074896;28;20347;-70
2023/04/01 07:03:32;;;;;;;1.50;0.60;;;10.80;58.00;;;;;;5075420;28;20186;-69
2023/04/01 07:06:05;;;;;;;2.70;0.80;;;11.00;58.30;;;;;;5075030;28;20185;-69
2023/04/01 07:08:43;;;;;;;1.52;0.68;;;11.10;57.50;;;;;;5075050;28;20221;-69
2023/04/01 07:11:13;;;;;;;1.75;0.82;;;11.30;57.40;;;;;;5074343;28;20192;-70
2023/04/01 07:13:50;;;;;;;2.25;0.98;;;11.50;56.90;;;;;;5074975;28;20280;-70
2023/04/01 07:16:25;;;;;;;4.30;0.80;;;11.80;56.00;;;;;;5074978;28;20213;-70
2023/04/01 07:19:06;;;;;;;1.70;0.75;;;12.00;55.90;;;;;;5074624;28;20212;-70
2023/04/01 07:21:37;;;;;;;2.03;0.68;;;12.30;55.00;;;;;;5075318;28;20575;-70
2023/04/01 07:24:12;;;;;;;2.92;0.80;;;12.70;54.50;;;;;;5074696;28;20529;-70
2023/04/01 07:26:40;;;;;;;2.17;0.83;;;13.10;53.60;;;;;;5074754;28;20613;-70
2023/04/01 07:29:11;;;;;;;1.70;0.93;;;13.90;52.60;;;;;;5073106;28;20451;-70
2023/04/01 07:31:56;;;;;;;1.73;0.70;;;15.40;49.10;;;;;;5071029;28;20444;-70
2023/04/01 07:34:36;;;;;;;2.43;0.80;;;18.40;43.40;;;;;;5072090;28;20443;-71
2023/04/01 07:37:11;;;;;;;2.50;0.63;;;21.80;36.90;;;;;;5072137;28;20988;-71
2023/04/01 07:39:53;;;;;;;1.80;0.63;;;24.60;31.10;;;;;;5068510;28;20481;-71
2023/04/01 07:42:34;;;;;;;1.93;0.87;;;26.90;27.40;;;;;;5072792;28;20489;-72
2023/04/01 07:45:09;;;;;;;1.57;0.53;;;28.50;24.60;;;;;;5067875;28;20436;-73
2023/04/01 07:47:57;;;;;;;1.50;0.50;;;30.00;22.80;;;;;;5072406;28;20786;-72
2023/04/01 07:50:29;;;;;;;1.80;0.60;;;31.20;21.10;;;;;;5071856;28;20457;-73
2023/04/01 07:53:08;;;;;;;3.70;0.80;;;32.50;19.60;;;;;;5068328;28;20431;-73
2023/04/01 07:55:43;;;;;;;1.70;0.50;;;32.20;18.20;;;;;;5070862;28;20523;-72
2023/04/01 07:58:24;;;;;;;1.87;0.50;;;30.90;19.10;;;;;;5068866;28;20775;-72
2023/04/01 08:00:58;;;;;;;2.03;0.63;;;31.40;18.80;;;;;;5072344;28;20911;-74
2023/04/01 08:03:50;;;;;;;1.73;0.53;;;32.90;18.20;;;;;;5073052;28;20447;-72
2023/04/01 08:06:23;;;;;;;1.53;0.50;;;34.60;16.40;;;;;;5069629;28;20497;-71
2023/04/01 08:09:01;;;;;;;1.60;0.50;;;36.20;16.30;;;;;;5072541;28;20464;-70
2023/04/01 08:11:42;;;;;;;2.37;0.90;;;37.50;14.10;;;;;;5069439;28;20447;-71
2023/04/01 08:14:18;;;;;;;1.70;0.60;;;37.30;13.20;;;;;;5072417;28;20484;-71
2023/04/01 08:16:52;;;;;;;2.80;0.50;;;36.70;13.50;;;;;;5070859;28;20507;-70
2023/04/01 08:19:28;;;;;;;1.60;0.60;;;37.00;13.90;;;;;;5071629;28;20921;-71
2023/04/01 08:21:59;;;;;;;1.70;0.50;;;37.60;13.40;;;;;;5072067;28;20439;-71
2023/04/01 08:24:33;;;;;;;2.53;0.50;;;38.70;12.50;;;;;;5071665;28;20910;-72
2023/04/01 08:27:07;;;;;;;1.60;0.50;;;38.20;11.30;;;;;;5065158;28;20475;-71
2023/04/01 08:29:40;;;;;;;2.03;0.50;;;35.20;12.40;;;;;;5069957;28;20446;-73
2023/04/01 08:32:19;;;;;;;2.00;0.50;;;35.50;12.90;;;;;;5069914;28;20452;-72
2023/04/01 08:34:55;;;;;;;1.93;0.50;;;37.00;12.30;;;;;;5071193;28;20461;-73
2023/04/01 08:37:26;;;;;;;1.60;0.50;;;37.90;11.70;;;;;;5070970;28;20571;-72
2023/04/01 08:39:58;;;;;;;1.70;0.50;;;37.90;11.90;;;;;;5069138;28;20547;-72
2023/04/01 08:42:50;;;;;;;1.70;0.57;;;39.20;11.70;;;;;;5070767;28;20443;-72
2023/04/01 08:45:30;;;;;;;1.80;0.60;;;38.40;11.20;;;;;;5069293;28;20539;-73
2023/04/01 08:48:42;;;;;;;2.00;0.50;;;36.60;11.10;;;;;;5068368;28;20945;-70
2023/04/01 08:51:33;;;;;;;2.27;0.70;;;35.30;11.80;;;;;;5070763;28;20432;-70
2023/04/01 08:54:34;;;;;;;1.80;0.60;;;33.90;12.50;;;;;;5070152;28;20442;-72
2023/04/01 08:57:09;;;;;;;1.73;0.63;;;31.40;13.90;;;;;;5066944;28;20571;-73
2023/04/01 09:00:03;;;;;;;2.20;0.57;;;30.70;15.70;;;;;;5070803;28;20781;-73
2023/04/01 09:02:59;;;;;;;1.50;0.50;;;33.20;14.80;;;;;;5070677;28;20436;-73
2023/04/01 09:06:23;;;;;;;2.90;0.50;;;34.40;13.50;;;;;;5069472;28;20790;-71
2023/04/01 09:09:22;;;;;;;1.57;0.47;;;35.90;13.30;;;;;;5068147;28;21091;-70
2023/04/01 09:12:16;;;;;;;1.50;0.50;;;36.70;11.80;;;;;;5069683;28;20539;-70
2023/04/01 09:15:31;;;;;;;2.10;0.50;;;36.20;12.00;;;;;;5060164;28;20531;-71
2023/04/01 09:18:29;;;;;;;2.10;0.80;;;36.40;12.00;;;;;;5047620;28;20483;-70
2023/04/01 09:21:13;;;;;;;1.57;0.50;;;33.80;12.00;;;;;;5062017;28;20440;-72
2023/04/01 09:23:54;;;;;;;1.60;0.60;;;30.70;13.30;;;;;;5067343;28;20795;-69
2023/04/01 09:26:47;;;;;;;1.90;0.80;;;28.10;15.40;;;;;;5065571;28;20847;-72
2023/04/01 09:29:27;;;;;;;1.60;0.60;;;26.00;17.50;;;;;;5056140;28;20527;-72
2023/04/01 09:32:39;;;;;;;3.07;0.60;;;24.50;19.20;;;;;;5067104;28;20476;-72
2023/04/01 09:35:22;;;;;;;1.50;0.50;;;23.10;20.40;;;;;;5025645;28;20436;-71
2023/04/01 09:38:01;;;;;;;1.60;0.50;;;21.80;22.30;;;;;;5068770;28;20479;-73
2023/04/01 09:40:44;;;;;;;1.70;0.50;;;21.10;23.00;;;;;;5069623;28;20487;-72
2023/04/01 09:43:28;;;;;;;2.70;0.50;;;20.30;24.10;;;;;;5066332;28;20459;-71
2023/04/01 09:46:09;;;;;;;2.03;0.60;;;19.80;24.70;;;;;;5070207;28;20926;-72
2023/04/01 09:49:07;;;;;;;1.50;0.50;;;19.60;25.10;;;;;;5068728;28;20527;-71
2023/04/01 09:51:41;;;;;;;1.87;0.60;;;19.50;25.80;;;;;;5070684;28;20471;-73
2023/04/01 09:54:31;;;;;;;1.50;0.50;;;19.90;25.30;;;;;;5073389;28;20484;-71
2023/04/01 09:57:23;;;;;;;2.17;0.47;;;19.80;25.30;;;;;;5074251;28;20561;-72
2023/04/01 10:00:31;;;;;;;1.77;0.50;;;19.50;26.10;;;;;;5072885;28;20501;-71
2023/04/01 10:03:40;;;;;;;1.60;0.53;;;19.50;26.60;;;;;;5066347;28;20998;-72
2023/04/01 10:06:40;;;;;;;1.90;0.70;;;19.40;26.00;;;;;;5069934;28;20928;-72
2023/04/01 10:09:51;;;;;;;1.50;0.50;;;19.30;26.10;;;;;;5068624;28;20455;-71
2023/04/01 10:13:02;;;;;;;1.47;0.40;;;18.90;26.40;;;;;;5071564;28;20480;-71
2023/04/01 10:16:13;;;;;;;1.50;0.50;;;18.60;26.60;;;;;;5035819;28;20431;-71
2023/04/01 10:19:13;;;;;;;1.60;0.50;;;18.50;27.80;;;;;;5032439;28;20489;-71
2023/04/01 10:22:13;;;;;;;1.50;0.50;;;18.60;28.00;;;;;;5070291;28;20801;-74
2023/04/01 10:25:15;;;;;;;2.47;0.70;;;18.70;27.50;;;;;;5068895;28;20519;-71
2023/04/01 10:28:17;;;;;;;1.63;0.67;;;18.70;28.40;;;;;;5073622;28;20965;-71
2023/04/01 10:31:07;;;;;;;2.07;0.60;;;18.80;28.80;;;;;;5070468;28;20439;-71
2023/04/01 10:34:06;;;;;;;1.87;0.50;;;19.10;28.40;;;;;;5071315;28;20913;-71
2023/04/01 10:36:49;;;;;;;1.57;0.60;;;20.40;27.90;;;;;;5072056;28;20533;-72
2023/04/01 10:39:35;;;;;;;1.50;0.57;;;21.70;26.90;;;;;;5074049;28;20440;-71
2023/04/01 10:42:39;;;;;;;1.50;0.50;;;21.70;25.80;;;;;;5071034;28;20435;-72
2023/04/01 10:45:39;;;;;;;2.10;0.50;;;22.00;27.10;;;;;;5068907;28;20482;-71
2023/04/01 10:48:19;;;;;;;1.50;0.50;;;22.70;25.30;;;;;;5071197;28;20902;-73
2023/04/01 10:51:11;;;;;;;1.50;0.50;;;22.20;24.70;;;;;;5072273;28;20428;-71
2023/04/01 10:54:10;;;;;;;1.50;0.50;;;21.30;25.70;;;;;;5068033;28;20859;-75
2023/04/01 10:56:52;;;;;;;1.50;0.50;;;20.50;26.10;;;;;;5069212;28;20968;-71
2023/04/01 10:59:48;;;;;;;1.50;0.50;;;20.10;27.00;;;;;;5072981;28;21186;-71
2023/04/01 11:03:01;;;;;;;1.47;0.40;;;19.80;27.90;;;;;;5071957;28;20459;-71
2023/04/01 11:06:13;;;;;;;1.50;0.47;;;19.50;28.10;;;;;;5062808;28;20482;-71
2023/04/01 11:09:18;;;;;;;1.70;0.50;;;19.30;28.60;;;;;;5073481;28;20546;-71
2023/04/01 11:12:44;;;;;;;1.50;0.50;;;19.20;29.10;;;;;;5027854;28;20489;-71
2023/04/01 11:15:41;;;;;;;1.50;0.50;;;18.90;28.60;;;;;;5014914;28;20437;-71
2023/04/01 11:18:50;;;;;;;1.50;0.43;;;18.70;29.20;;;;;;5069853;28;20976;-71
2023/04/01 11:21:57;;;;;;;1.50;0.50;;;18.50;29.70;;;;;;5069947;28;20475;-73
2023/04/01 11:24:51;;;;;;;1.60;0.50;;;18.20;30.50;;;;;;5073385;28;20589;-71
2023/04/01 11:27:51;;;;;;;2.23;0.70;;;18.00;31.20;;;;;;5072514;28;20435;-71
2023/04/01 11:30:26;;;;;;;1.50;0.50;;;17.70;30.90;;;;;;5057382;28;20468;-72
2023/04/01 11:33:03;;;;;;;1.50;0.50;;;17.30;31.90;;;;;;5068533;28;20515;-70
2023/04/01 11:36:11;;;;;;;1.50;0.50;;;17.00;32.80;;;;;;5073099;28;20432;-71
2023/04/01 11:39:00;;;;;;;1.60;0.50;;;16.80;32.90;;;;;;4995228;28;21068;-70
2023/04/01 11:41:40;;;;;;;1.50;0.50;;;16.60;33.60;;;;;;5068202;28;20864;-71
2023/04/01 11:44:22;;;;;;;1.60;0.60;;;16.40;34.20;;;;;;5073219;28;20531;-70
2023/04/01 11:47:18;;;;;;;1.60;0.50;;;16.20;34.80;;;;;;5072921;28;20945;-70
2023/04/01 11:50:14;;;;;;;1.53;0.53;;;16.00;35.50;;;;;;5070577;28;20443;-71
2023/04/01 11:53:06;;;;;;;1.60;0.70;;;15.70;36.60;;;;;;5067875;28;20440;-70
2023/04/01 11:55:47;;;;;;;1.60;0.67;;;15.50;37.70;;;;;;5069465;28;20515;-71
2023/04/01 11:58:49;;;;;;;1.63;0.63;;;15.30;38.00;;;;;;5067398;28;20550;-70
2023/04/01 12:01:34;;;;;;;1.70;0.70;;;15.10;38.60;;;;;;5066547;28;20475;-71
2023/04/01 12:04:32;;;;;;;1.60;0.50;;;15.00;38.60;;;;;;5068643;28;20507;-71
2023/04/01 12:07:20;;;;;;;1.50;0.60;;;14.80;38.90;;;;;;5071533;28;20860;-71
2023/04/01 12:10:04;;;;;;;1.60;0.60;;;14.50;39.70;;;;;;5068231;28;20472;-71
2023/04/01 12:12:42;;;;;;;3.00;0.60;;;14.30;40.20;;;;;;5071777;28;20439;-71
2023/04/01 12:15:32;;;;;;;1.60;0.60;;;14.00;41.00;;;;;;5071693;28;20428;-70
2023/04/01 12:18:10;;;;;;;2.10;0.70;;;13.80;41.50;;;;;;5071477;28;20522;-72
2023/04/01 12:20:51;;;;;;;1.60;0.70;;;13.60;42.50;;;;;;5072065;28;20499;-70
2023/04/01 12:23:47;;;;;;;2.00;0.83;;;13.50;42.20;;;;;;5071737;28;20443;-70
2023/04/01 12:26:40;;;;;;;1.70;0.60;;;13.30;42.80;;;;;;5068218;28;20443;-76
2023/04/01 12:29:27;;;;;;;2.10;0.80;;;13.10;43.90;;;;;;5070565;28;20440;-70
2023/04/01 12:32:05;;;;;;;1.80;0.70;;;13.00;43.90;;;;;;5069371;28;20440;-70
2023/04/01 12:34:52;;;;;;;1.97;0.83;;;12.90;43.60;;;;;;5071942;28;20472;-70
2023/04/01 12:37:35;;;;;;;2.27;0.83;;;12.90;44.20;;;;;;5071638;28;20527;-70
2023/04/01 12:40:26;;;;;;;1.50;0.60;;;12.90;44.60;;;;;;5072417;28;20479;-71
2023/04/01 12:43:15;;;;;;;2.30;0.63;;;12.90;43.80;;;;;;5069874;28;20440;-70
2023/04/01 12:45:50;;;;;;;2.97;0.60;;;12.90;43.80;;;;;;5069273;28;20559;-70
2023/04/01 12:48:55;;;;;;;1.50;0.60;;;12.80;43.60;;;;;;5068885;28;20328;-72
2023/04/01 12:51:54;;;;;;;1.60;0.70;;;12.70;43.70;;;;;;5036007;28;20934;-70
2023/04/01 12:54:58;;;;;;;1.85;0.80;;;12.70;44.20;;;;;;5070174;28;20455;-70
2023/04/01 12:57:49;;;;;;;2.10;0.80;;;12.70;44.00;;;;;;5069982;28;20276;-70
2023/04/01 13:00:31;;;;;;;2.47;1.27;;;12.60;44.40;;;;;;5035403;28;20193;-70
2023/04/01 13:03:19;;;;;;;1.93;0.87;;;12.70;44.30;;;;;;5070272;28;20197;-70
2023/04/01 13:06:14;;;;;;;1.60;0.60;;;12.70;44.20;;;;;;5067386;28;20472;-70
2023/04/01 13:08:46;;;;;;;2.63;0.83;;;12.80;44.00;;;;;;5067492;28;20229;-70
2023/04/01 13:11:23;;;;;;;1.60;0.60;;;12.80;44.30;;;;;;5070534;28;20985;-70
2023/04/01 13:14:32;;;;;;;3.03;1.13;;;12.80;44.90;;;;;;5070435;28;20181;-70
2023/04/01 13:17:06;;;;;;;1.57;0.70;;;13.00;45.00;;;;;;5070436;28;20533;-70
2023/04/01 13:19:46;;;;;;;1.63;0.80;;;13.00;44.40;;;;;;5066226;28;20475;-70
2023/04/01 13:22:25;;;;;;;1.70;0.80;;;13.10;44.90;;;;;;5070909;28;20446;-70
2023/04/01 13:25:00;;;;;;;1.70;0.60;;;13.20;44.80;;;;;;5069649;28;20444;-73
2023/04/01 13:27:35;;;;;;;1.80;0.80;;;13.20;44.80;;;;;;5070702;28;20509;-70
2023/04/01 13:30:22;;;;;;;1.60;0.67;;;13.20;44.20;;;;;;5070707;28;20254;-70
2023/04/01 13:32:57;;;;;;;1.73;0.70;;;13.20;44.40;;;;;;5064319;28;20440;-71
2023/04/01 13:35:36;;;;;;;1.50;0.60;;;13.20;44.60;;;;;;5070254;28;20527;-70
2023/04/01 13:38:25;;;;;;;2.07;1.03;;;13.10;44.90;;;;;;5067037;28;20558;-71
2023/04/01 13:41:01;;;;;;;1.70;0.80;;;13.20;44.50;;;;;;5067595;28;20501;-70
2023/04/01 13:43:56;;;;;;;1.50;0.53;;;13.10;44.90;;;;;;5069495;28;20550;-70
2023/04/01 13:46:49;;;;;;;1.80;0.80;;;13.00;44.40;;;;;;5068424;28;20468;-70
2023/04/01 13:49:40;;;;;;;1.50;0.50;;;13.00;45.30;;;;;;5069085;28;21013;-70
2023/04/01 13:52:37;;;;;;;4.33;0.93;;;12.90;45.70;;;;;;5068864;28;20248;-70
2023/04/01 13:55:27;;;;;;;1.80;0.80;;;13.00;45.60;;;;;;5068962;28;20881;-70
2023/04/01 13:58:29;;;;;;;1.60;0.70;;;13.00;45.70;;;;;;5065240;28;20475;-70